createdAt,value
2023-01-21T00:00:13.677Z,35.60
2023-01-21T00:02:15.200Z,41.03
2023-01-21T00:04:16.776Z,41.08
2023-01-21T00:06:18.306Z,36.72
2023-01-21T00:08:20.037Z,42.17
2023-01-21T00:10:21.492Z,44.72
2023-01-21T00:12:22.975Z,39.40
2023-01-21T00:14:24.598Z,39.70
2023-01-21T00:16:26.101Z,38.72
2023-01-21T00:18:29.946Z,38.95
2023-01-21T00:20:31.722Z,47.42
2023-01-21T00:22:33.478Z,38.38
2023-01-21T00:24:34.980Z,40.13
2023-01-21T00:26:36.488Z,40.63
2023-01-21T00:28:38.663Z,41.75
2023-01-21T00:30:41.588Z,40.83
2023-01-21T00:32:43.108Z,38.60
2023-01-21T00:34:44.585Z,37.28
2023-01-21T00:36:46.031Z,41.72
2023-01-21T00:38:51.063Z,44.70
2023-01-21T00:40:52.548Z,42.95
2023-01-21T00:42:53.987Z,45.92
2023-01-21T00:44:57.452Z,42.25
2023-01-21T00:46:58.946Z,42.00
2023-01-21T00:49:00.432Z,42.30
2023-01-21T00:51:02.311Z,40.90
2023-01-21T00:53:03.781Z,46.35
2023-01-21T00:55:05.887Z,44.05
2023-01-21T00:57:08.456Z,44.50
2023-01-21T00:59:10.085Z,46.55
2023-01-21T01:01:14.770Z,48.22
2023-01-21T01:03:16.485Z,46.78
2023-01-21T01:05:19.425Z,49.85
2023-01-21T01:07:20.878Z,50.75
2023-01-21T01:09:22.335Z,47.35
2023-01-21T01:11:26.712Z,48.25
2023-01-21T01:13:28.587Z,48.08
2023-01-21T01:15:30.048Z,46.78
2023-01-21T01:17:31.584Z,46.53
2023-01-21T01:19:33.058Z,43.53
2023-01-21T01:21:34.536Z,48.85
2023-01-21T01:23:36.620Z,47.58
2023-01-21T01:25:38.141Z,49.05
2023-01-21T01:27:39.615Z,49.63
2023-01-21T01:29:41.091Z,47.63
2023-01-21T01:31:44.211Z,49.90
2023-01-21T01:33:46.608Z,49.58
2023-01-21T01:35:48.879Z,57.28
2023-01-21T01:37:50.362Z,56.97
2023-01-21T01:39:51.821Z,46.88
2023-01-21T01:41:53.906Z,49.60
2023-01-21T01:44:04.634Z,55.95
2023-01-21T01:46:06.243Z,54.13
2023-01-21T01:48:10.067Z,53.72
2023-01-21T01:50:18.143Z,52.75
2023-01-21T01:52:21.296Z,54.63
2023-01-21T01:54:32.307Z,53.03
2023-01-21T01:56:37.525Z,55.85
2023-01-21T01:58:39.914Z,49.63
2023-01-21T02:00:41.483Z,45.53
2023-01-21T02:02:43.939Z,51.97
2023-01-21T02:04:56.846Z,49.55
2023-01-21T02:06:58.454Z,47.75
2023-01-21T02:09:00.110Z,49.72
2023-01-21T02:11:02.732Z,51.53
2023-01-21T02:13:04.616Z,49.13
2023-01-21T02:15:07.082Z,52.97
2023-01-21T02:17:36.619Z,50.72
2023-01-21T02:19:46.884Z,50.47
2023-01-21T02:22:00.509Z,48.88
2023-01-21T02:24:13.840Z,51.00
2023-01-21T02:26:27.122Z,49.20
2023-01-21T02:28:59.405Z,46.90
2023-01-21T02:31:25.360Z,51.10
2023-01-21T02:34:01.562Z,54.70
2023-01-21T02:36:21.456Z,50.85
2023-01-21T02:38:31.827Z,48.78
2023-01-21T02:40:44.610Z,46.47
2023-01-21T02:42:47.274Z,49.13
2023-01-21T02:44:56.615Z,46.13
2023-01-21T02:47:16.670Z,46.42
2023-01-21T02:49:31.758Z,54.85
2023-01-21T02:51:33.245Z,45.53
2023-01-21T02:53:36.441Z,43.08
2023-01-21T02:55:38.517Z,48.75
2023-01-21T02:57:51.015Z,53.97
2023-01-21T02:59:55.517Z,44.70
2023-01-21T03:02:12.185Z,44.92
2023-01-21T03:04:31.853Z,52.22
2023-01-21T03:06:43.804Z,46.60
2023-01-21T03:08:54.085Z,49.30
2023-01-21T03:11:31.101Z,43.92
2023-01-21T03:13:59.458Z,42.60
2023-01-21T03:16:20.467Z,42.85
2023-01-21T03:18:29.884Z,51.60
2023-01-21T03:20:38.206Z,44.95
2023-01-21T03:22:40.576Z,43.30
2023-01-21T03:24:46.531Z,42.25
2023-01-21T03:26:52.257Z,44.58
2023-01-21T03:28:58.834Z,46.85
2023-01-21T03:31:07.816Z,48.58
2023-01-21T03:33:12.738Z,41.58
2023-01-21T03:35:36.515Z,42.72
2023-01-21T03:37:52.940Z,42.05
2023-01-21T03:40:15.602Z,39.45
2023-01-21T03:42:17.825Z,48.72
2023-01-21T03:44:19.454Z,42.30
2023-01-21T03:46:44.820Z,43.35
2023-01-21T03:48:57.420Z,42.22
2023-01-21T03:51:04.683Z,40.67
2023-01-21T03:53:07.342Z,36.60
2023-01-21T03:55:10.237Z,42.92
2023-01-21T03:57:11.728Z,45.45
2023-01-21T03:59:13.444Z,39.40
2023-01-21T04:01:15.016Z,40.85
2023-01-21T04:03:16.523Z,39.08
2023-01-21T04:05:18.068Z,40.78
2023-01-21T04:07:19.815Z,42.92
2023-01-21T04:09:21.284Z,40.83
2023-01-21T04:11:22.778Z,44.92
2023-01-21T04:13:24.286Z,39.85
2023-01-21T04:15:25.821Z,39.03
2023-01-21T04:17:28.743Z,38.88
2023-01-21T04:19:30.261Z,39.20
2023-01-21T04:21:31.944Z,37.40
2023-01-21T04:23:33.419Z,35.13
2023-01-21T04:25:34.878Z,37.47
2023-01-21T04:27:36.333Z,38.22
2023-01-21T04:29:37.858Z,37.75
2023-01-21T04:31:39.373Z,38.85
2023-01-21T04:33:40.899Z,37.85
2023-01-21T04:35:42.375Z,36.90
2023-01-21T04:37:43.817Z,35.08
2023-01-21T04:39:45.337Z,39.95
2023-01-21T04:41:46.847Z,44.88
2023-01-21T04:43:48.311Z,43.95
2023-01-21T04:45:50.224Z,44.30
2023-01-21T04:47:51.742Z,45.10
2023-01-21T04:49:53.570Z,44.53
2023-01-21T04:51:55.108Z,41.42
2023-01-21T04:53:56.634Z,43.10
2023-01-21T04:55:58.200Z,38.25
2023-01-21T04:57:59.667Z,38.13
2023-01-21T05:00:01.192Z,38.00
2023-01-21T05:02:02.799Z,35.47
2023-01-21T05:04:04.506Z,42.08
2023-01-21T05:06:06.142Z,41.83
2023-01-21T05:08:07.898Z,42.67
2023-01-21T05:10:16.203Z,42.42
2023-01-21T05:12:17.875Z,41.03
2023-01-21T05:14:19.398Z,42.58
2023-01-21T05:16:20.980Z,41.67
2023-01-21T05:18:22.479Z,42.42
2023-01-21T05:20:24.219Z,41.63
2023-01-21T05:22:25.709Z,45.25
2023-01-21T05:24:27.222Z,45.95
2023-01-21T05:26:28.663Z,44.92
2023-01-21T05:28:30.207Z,39.88
2023-01-21T05:30:31.788Z,50.70
2023-01-21T05:32:33.267Z,40.83
2023-01-21T05:34:34.724Z,45.13
2023-01-21T05:36:36.287Z,42.05
2023-01-21T05:38:37.744Z,45.63
2023-01-21T05:40:39.212Z,45.10
2023-01-21T05:42:40.869Z,42.15
2023-01-21T05:44:42.308Z,40.92
2023-01-21T05:46:43.801Z,46.47
2023-01-21T05:48:45.308Z,43.97
2023-01-21T05:50:47.918Z,42.15
2023-01-21T05:52:49.419Z,43.47
2023-01-21T05:55:01.234Z,46.50
2023-01-21T05:57:03.857Z,46.95
2023-01-21T05:59:05.345Z,52.85
2023-01-21T06:01:06.865Z,44.97
2023-01-21T06:03:08.353Z,49.70
2023-01-21T06:05:09.803Z,48.08
2023-01-21T06:07:11.316Z,47.10
2023-01-21T06:09:12.829Z,45.30
2023-01-21T06:11:14.283Z,42.45
2023-01-21T06:13:16.524Z,46.15
2023-01-21T06:15:18.778Z,43.28
2023-01-21T06:17:20.290Z,49.00
2023-01-21T06:19:21.756Z,50.83
2023-01-21T06:21:23.227Z,41.63
2023-01-21T06:23:24.696Z,50.60
2023-01-21T06:25:26.419Z,45.78
2023-01-21T06:27:27.920Z,42.97
2023-01-21T06:29:29.385Z,40.92
2023-01-21T06:31:31.066Z,52.25
2023-01-21T06:33:32.605Z,47.78
2023-01-21T06:35:34.151Z,42.67
2023-01-21T06:37:35.660Z,47.25
2023-01-21T06:39:37.577Z,42.13
2023-01-21T06:41:39.429Z,50.92
2023-01-21T06:43:40.891Z,48.80
2023-01-21T06:45:42.384Z,45.00
2023-01-21T06:47:44.527Z,47.75
2023-01-21T06:49:45.958Z,43.70
2023-01-21T06:51:47.484Z,45.75
2023-01-21T06:53:48.934Z,46.80
2023-01-21T06:55:50.413Z,45.90
2023-01-21T06:57:51.867Z,46.20
2023-01-21T06:59:53.305Z,44.33
2023-01-21T07:01:55.176Z,41.05
2023-01-21T07:03:56.758Z,46.85
2023-01-21T07:05:58.305Z,44.42
2023-01-21T07:07:59.802Z,47.50
2023-01-21T07:10:01.323Z,46.67
2023-01-21T07:12:02.768Z,47.47
2023-01-21T07:14:04.255Z,40.30
2023-01-21T07:16:07.048Z,45.13
2023-01-21T07:18:08.689Z,45.42
2023-01-21T07:20:12.372Z,43.58
2023-01-21T07:22:13.921Z,45.78
2023-01-21T07:24:15.358Z,44.75
2023-01-21T07:26:16.816Z,41.03
2023-01-21T07:28:18.304Z,48.25
2023-01-21T07:30:21.099Z,40.28
2023-01-21T07:32:22.646Z,41.83
2023-01-21T07:34:24.123Z,45.80
2023-01-21T07:36:26.631Z,46.70
2023-01-21T07:38:28.247Z,43.42
2023-01-21T07:40:29.713Z,42.65
2023-01-21T07:42:31.157Z,46.63
2023-01-21T07:44:32.655Z,41.88
2023-01-21T07:46:34.890Z,42.35
2023-01-21T07:48:36.447Z,40.67
2023-01-21T07:50:38.086Z,41.45
2023-01-21T07:52:39.579Z,42.53
2023-01-21T07:54:41.094Z,39.58
2023-01-21T07:56:42.548Z,48.75
2023-01-21T07:58:44.336Z,39.95
2023-01-21T08:00:45.793Z,38.80
2023-01-21T08:02:50.648Z,42.13
2023-01-21T08:04:52.133Z,40.47
2023-01-21T08:06:56.914Z,42.20
2023-01-21T08:08:58.455Z,38.55
2023-01-21T08:11:00.048Z,39.85
2023-01-21T08:13:02.001Z,42.72
2023-01-21T08:15:03.743Z,41.67
2023-01-21T08:17:05.227Z,36.80
2023-01-21T08:19:06.802Z,34.65
2023-01-21T08:21:08.252Z,33.45
2023-01-21T08:23:09.720Z,33.78
2023-01-21T08:25:11.711Z,37.00
2023-01-21T08:27:13.310Z,35.28
2023-01-21T08:29:15.159Z,39.08
2023-01-21T08:31:16.693Z,39.40
2023-01-21T08:33:18.284Z,36.90
2023-01-21T08:35:19.765Z,36.83
2023-01-21T08:37:21.253Z,36.00
2023-01-21T08:39:22.766Z,36.85
2023-01-21T08:41:25.466Z,32.20
2023-01-21T08:43:27.321Z,35.85
2023-01-21T08:45:29.863Z,36.75
2023-01-21T08:47:31.389Z,36.85
2023-01-21T08:49:32.831Z,39.47
2023-01-21T08:51:34.545Z,36.33
2023-01-21T08:53:36.058Z,40.92
2023-01-21T08:55:37.503Z,37.22
2023-01-21T08:57:38.978Z,36.47
2023-01-21T08:59:40.429Z,34.88
2023-01-21T09:01:42.455Z,38.30
2023-01-21T09:03:43.911Z,40.25
2023-01-21T09:05:46.421Z,37.72
2023-01-21T09:07:47.935Z,40.70
2023-01-21T09:09:49.973Z,39.60
2023-01-21T09:11:52.535Z,43.50
2023-01-21T09:13:54.060Z,40.80
2023-01-21T09:15:55.536Z,40.85
2023-01-21T09:17:56.982Z,44.97
2023-01-21T09:19:58.433Z,38.90
2023-01-21T09:21:59.900Z,38.92
2023-01-21T09:24:02.046Z,42.55
2023-01-21T09:26:07.539Z,42.50
2023-01-21T09:28:09.004Z,43.63
2023-01-21T09:30:10.806Z,45.83
2023-01-21T09:32:12.407Z,42.05
2023-01-21T09:34:13.962Z,45.33
2023-01-21T09:36:21.500Z,49.25
2023-01-21T09:38:24.281Z,42.53
2023-01-21T09:40:25.805Z,45.53
2023-01-21T09:42:32.013Z,46.17
2023-01-21T09:44:44.661Z,48.78
2023-01-21T09:46:56.081Z,41.90
2023-01-21T09:49:00.870Z,54.13
2023-01-21T09:51:07.015Z,56.13
2023-01-21T09:53:27.338Z,48.63
2023-01-21T09:55:40.095Z,40.85
2023-01-21T09:58:05.601Z,47.63
2023-01-21T10:00:22.127Z,42.30
2023-01-21T10:02:30.630Z,48.28
2023-01-21T10:04:50.270Z,48.00
2023-01-21T10:06:54.740Z,42.72
2023-01-21T10:08:59.192Z,39.00
2023-01-21T10:11:34.802Z,44.38
2023-01-21T10:14:08.765Z,42.88
2023-01-21T10:16:35.386Z,45.60
2023-01-21T10:18:40.585Z,46.20
2023-01-21T10:21:14.224Z,52.78
2023-01-21T10:23:47.909Z,47.40
2023-01-21T10:25:50.423Z,51.38
2023-01-21T10:27:53.140Z,51.65
2023-01-21T10:30:02.196Z,49.80
2023-01-21T10:32:06.949Z,56.22
2023-01-21T10:34:15.580Z,54.53
2023-01-21T10:36:23.577Z,50.10
2023-01-21T10:38:31.162Z,50.88
2023-01-21T10:40:55.750Z,51.15
2023-01-21T10:43:07.757Z,50.50
2023-01-21T10:45:21.473Z,49.67
2023-01-21T10:47:41.619Z,44.88
2023-01-21T10:50:14.070Z,48.20
2023-01-21T10:52:21.609Z,43.08
2023-01-21T10:54:51.090Z,36.53
2023-01-21T10:57:11.807Z,40.38
2023-01-21T10:59:18.957Z,43.05
2023-01-21T11:01:29.338Z,37.15
2023-01-21T11:03:44.251Z,40.15
2023-01-21T11:05:48.483Z,37.42
2023-01-21T11:07:52.009Z,42.25
2023-01-21T11:09:53.810Z,46.72
2023-01-21T11:11:55.334Z,35.83
2023-01-21T11:13:57.191Z,38.47
2023-01-21T11:16:00.180Z,37.33
2023-01-21T11:18:22.385Z,39.00
2023-01-21T11:20:39.756Z,39.05
2023-01-21T11:22:45.505Z,36.08
2023-01-21T11:24:49.565Z,36.17
2023-01-21T11:26:59.740Z,39.22
2023-01-21T11:29:07.360Z,34.38
2023-01-21T11:31:14.746Z,34.92
2023-01-21T11:33:22.681Z,35.58
2023-01-21T11:35:24.381Z,39.03
2023-01-21T11:37:31.117Z,40.50
2023-01-21T11:39:36.908Z,47.17
2023-01-21T11:41:38.552Z,36.63
2023-01-21T11:43:44.584Z,37.63
2023-01-21T11:45:51.293Z,38.55
2023-01-21T11:47:54.274Z,36.30
2023-01-21T11:50:02.421Z,34.83
2023-01-21T11:52:15.332Z,35.83
2023-01-21T11:54:16.793Z,38.65
2023-01-21T11:56:18.314Z,40.15
2023-01-21T11:58:26.557Z,39.78
2023-01-21T12:00:28.738Z,40.33
2023-01-21T12:02:44.057Z,36.90
2023-01-21T12:05:09.283Z,33.42
2023-01-21T12:07:21.067Z,33.40
2023-01-21T12:09:22.813Z,37.83
2023-01-21T12:11:28.184Z,29.45
2023-01-21T12:13:35.547Z,36.97
2023-01-21T12:15:40.094Z,32.20
2023-01-21T12:17:57.196Z,32.38
2023-01-21T12:20:29.546Z,27.83
2023-01-21T12:22:36.623Z,31.77
2023-01-21T12:24:47.350Z,32.72
2023-01-21T12:26:52.924Z,28.90
2023-01-21T12:29:13.142Z,28.83
2023-01-21T12:31:25.954Z,29.70
2023-01-21T12:33:30.577Z,31.08
2023-01-21T12:35:41.170Z,31.98
2023-01-21T12:37:51.770Z,35.63
2023-01-21T12:39:56.503Z,32.70
2023-01-21T12:42:07.491Z,36.97
2023-01-21T12:44:31.359Z,32.75
2023-01-21T12:46:40.790Z,38.78
2023-01-21T12:49:05.526Z,33.63
2023-01-21T12:51:12.313Z,37.40
2023-01-21T12:53:38.623Z,34.58
2023-01-21T12:56:37.291Z,35.80
2023-01-21T12:58:49.033Z,34.20
2023-01-21T13:00:52.651Z,35.85
2023-01-21T13:03:01.746Z,36.47
2023-01-21T13:05:23.333Z,31.40
2023-01-21T13:07:43.081Z,32.75
2023-01-21T13:10:00.970Z,38.80
2023-01-21T13:12:15.875Z,37.45
2023-01-21T13:14:26.910Z,35.47
2023-01-21T13:16:29.741Z,34.10
2023-01-21T13:18:36.171Z,34.35
2023-01-21T13:20:42.706Z,35.35
2023-01-21T13:23:08.086Z,33.20
2023-01-21T13:25:28.395Z,35.28
2023-01-21T13:28:14.753Z,32.85
2023-01-21T13:30:40.628Z,28.75
2023-01-21T13:33:06.770Z,32.88
2023-01-21T13:35:42.531Z,33.58
2023-01-21T13:38:10.236Z,29.50
2023-01-21T13:40:49.047Z,37.58
2023-01-21T13:43:05.111Z,33.10
2023-01-21T13:45:54.802Z,31.10
2023-01-21T13:48:32.159Z,33.47
2023-01-21T13:51:05.262Z,32.17
2023-01-21T13:53:06.675Z,33.00
2023-01-21T13:55:29.907Z,34.67
2023-01-21T13:57:52.615Z,36.28
2023-01-21T13:59:57.596Z,31.33
2023-01-21T14:02:14.260Z,28.35
2023-01-21T14:04:35.196Z,30.08
2023-01-21T14:06:56.473Z,31.30
2023-01-21T14:09:33.140Z,26.98
2023-01-21T14:11:53.489Z,27.25
2023-01-21T14:16:15.044Z,25.70
2023-01-21T14:18:21.834Z,27.33
2023-01-21T14:20:40.961Z,25.40
2023-01-21T14:22:51.403Z,24.40
2023-01-21T14:25:17.549Z,26.75
2023-01-21T14:27:26.743Z,28.85
2023-01-21T14:29:40.362Z,26.33
2023-01-21T14:31:51.406Z,23.75
2023-01-21T14:34:13.253Z,28.08
2023-01-21T14:36:20.952Z,25.25
2023-01-21T14:38:50.650Z,26.15
2023-01-21T14:41:08.083Z,24.98
2023-01-21T14:43:19.390Z,22.80
2023-01-21T14:45:24.745Z,21.90
2023-01-21T14:47:28.997Z,25.75
2023-01-21T14:49:41.825Z,24.48
2023-01-21T14:51:47.785Z,23.08
2023-01-21T14:53:52.165Z,20.52
2023-01-21T14:56:15.998Z,21.98
2023-01-21T14:58:27.833Z,20.38
2023-01-21T15:00:33.767Z,19.88
2023-01-21T15:03:15.533Z,21.40
2023-01-21T15:05:21.619Z,20.55
2023-01-21T15:07:28.491Z,20.65
2023-01-21T15:09:37.347Z,20.23
2023-01-21T15:13:42.107Z,22.27
2023-01-21T15:16:15.339Z,20.95
2023-01-21T15:18:25.860Z,21.52
2023-01-21T15:20:42.290Z,19.60
2023-01-21T15:22:46.752Z,24.33
2023-01-21T15:25:14.367Z,26.50
2023-01-21T15:27:26.930Z,23.13
2023-01-21T15:29:37.493Z,21.38
2023-01-21T15:31:41.994Z,21.80
2023-01-21T15:33:48.185Z,22.98
2023-01-21T15:35:50.197Z,23.60
2023-01-21T15:37:59.314Z,22.00
2023-01-21T15:40:07.119Z,23.90
2023-01-21T15:42:36.053Z,26.63
2023-01-21T15:45:12.580Z,24.20
2023-01-21T15:47:24.727Z,19.48
2023-01-21T15:50:06.884Z,27.05
2023-01-21T15:52:33.237Z,26.60
2023-01-21T15:55:06.828Z,27.33
2023-01-21T15:57:35.684Z,23.27
2023-01-21T15:59:55.764Z,25.40
2023-01-21T16:02:19.905Z,26.27
2023-01-21T16:04:40.664Z,24.08
2023-01-21T16:06:58.160Z,27.52
2023-01-21T16:09:08.190Z,24.83
2023-01-21T16:11:45.295Z,25.23
2023-01-21T16:14:01.336Z,25.92
2023-01-21T16:16:08.724Z,23.17
2023-01-21T16:18:44.037Z,23.88
2023-01-21T16:20:50.177Z,24.73
2023-01-21T16:22:56.857Z,21.90
2023-01-21T16:25:07.639Z,23.83
2023-01-21T16:27:20.430Z,24.02
2023-01-21T16:29:21.940Z,23.73
2023-01-21T16:31:23.845Z,25.80
2023-01-21T16:33:25.529Z,24.40
2023-01-21T16:35:41.583Z,25.15
2023-01-21T16:37:44.224Z,25.92
2023-01-21T16:39:46.240Z,25.13
2023-01-21T16:42:01.243Z,24.42
2023-01-21T16:44:05.421Z,24.45
2023-01-21T16:46:13.040Z,22.67
2023-01-21T16:48:22.111Z,25.55
2023-01-21T16:50:26.603Z,26.00
2023-01-21T16:52:28.502Z,22.73
2023-01-21T16:54:32.281Z,24.50
2023-01-21T16:56:33.736Z,25.92
2023-01-21T16:58:35.318Z,29.30
2023-01-21T17:00:36.767Z,29.35
2023-01-21T17:02:38.350Z,26.92
2023-01-21T17:04:39.877Z,27.58
2023-01-21T17:06:44.277Z,23.90
2023-01-21T17:08:51.897Z,26.10
2023-01-21T17:11:00.412Z,27.15
2023-01-21T17:13:07.245Z,25.65
2023-01-21T17:15:29.702Z,26.77
2023-01-21T17:17:35.605Z,24.83
2023-01-21T17:19:40.395Z,27.60
2023-01-21T17:21:47.016Z,28.67
2023-01-21T17:23:54.892Z,30.05
2023-01-21T17:26:02.173Z,26.87
2023-01-21T17:28:28.613Z,28.50
2023-01-21T17:30:33.110Z,32.40
2023-01-21T17:32:34.690Z,28.13
2023-01-21T17:34:37.861Z,27.77
2023-01-21T17:36:42.058Z,29.55
2023-01-21T17:38:45.683Z,29.90
2023-01-21T17:41:03.687Z,32.88
2023-01-21T17:43:20.455Z,35.22
2023-01-21T17:45:30.163Z,32.25
2023-01-21T17:47:51.563Z,31.05
2023-01-21T17:50:16.915Z,28.02
2023-01-21T17:52:20.332Z,33.85
2023-01-21T17:54:27.497Z,31.02
2023-01-21T17:56:42.904Z,30.13
2023-01-21T18:00:47.960Z,33.88
2023-01-21T18:02:49.482Z,33.10
2023-01-21T18:04:51.050Z,38.35
2023-01-21T18:06:54.644Z,33.03
2023-01-21T18:09:05.885Z,33.13
2023-01-21T18:11:07.445Z,37.22
2023-01-21T18:13:15.707Z,35.80
2023-01-21T18:15:21.002Z,34.63
2023-01-21T18:17:24.872Z,32.83
2023-01-21T18:19:34.327Z,32.90
2023-01-21T18:21:35.797Z,35.88
2023-01-21T18:23:37.239Z,35.40
2023-01-21T18:25:39.671Z,36.88
2023-01-21T18:27:45.377Z,31.75
2023-01-21T18:29:47.959Z,33.53
2023-01-21T18:31:52.077Z,32.38
2023-01-21T18:33:53.643Z,31.08
2023-01-21T18:35:55.227Z,30.45
2023-01-21T18:37:56.728Z,30.15
2023-01-21T18:39:58.205Z,30.50
2023-01-21T18:41:59.698Z,30.73
2023-01-21T18:44:01.158Z,28.70
2023-01-21T18:46:02.748Z,27.20
2023-01-21T18:48:04.325Z,27.55
2023-01-21T18:50:06.320Z,25.55
2023-01-21T18:52:10.822Z,27.50
2023-01-21T18:54:13.988Z,28.88
2023-01-21T18:56:16.055Z,26.65
2023-01-21T18:58:17.738Z,25.58
2023-01-21T19:00:28.471Z,27.10
2023-01-21T19:02:30.019Z,28.05
2023-01-21T19:04:31.499Z,22.35
2023-01-21T19:06:32.962Z,20.77
2023-01-21T19:08:34.421Z,20.10
2023-01-21T19:10:35.860Z,18.73
2023-01-21T19:12:37.407Z,19.00
2023-01-21T19:14:38.993Z,17.73
2023-01-21T19:16:41.614Z,22.00
2023-01-21T19:18:43.108Z,20.25
2023-01-21T19:20:44.623Z,17.92
2023-01-21T19:22:46.645Z,21.85
2023-01-21T19:24:49.169Z,19.52
2023-01-21T19:26:50.647Z,20.88
2023-01-21T19:28:52.958Z,19.30
2023-01-21T19:30:58.432Z,21.02
2023-01-21T19:33:03.236Z,19.08
2023-01-21T19:35:05.164Z,18.15
2023-01-21T19:37:10.307Z,21.55
2023-01-21T19:39:19.475Z,17.75
2023-01-21T19:41:21.001Z,18.23
2023-01-21T19:43:22.885Z,18.38
2023-01-21T19:45:28.360Z,19.55
2023-01-21T19:47:30.135Z,13.82
2023-01-21T19:49:31.675Z,17.20
2023-01-21T19:51:33.123Z,14.77
2023-01-21T19:53:34.860Z,14.50
2023-01-21T19:55:37.154Z,16.80
2023-01-21T19:57:40.157Z,16.13
2023-01-21T19:59:45.107Z,10.95
2023-01-21T20:01:47.104Z,14.05
2023-01-21T20:03:59.616Z,12.63
2023-01-21T20:06:03.561Z,16.65
2023-01-21T20:08:05.631Z,15.00
2023-01-21T20:10:14.555Z,12.90
2023-01-21T20:12:16.123Z,14.43
2023-01-21T20:14:17.625Z,12.82
2023-01-21T20:16:21.036Z,12.75
2023-01-21T20:18:28.067Z,13.55
2023-01-21T20:20:31.761Z,12.63
2023-01-21T20:22:33.522Z,13.73
2023-01-21T20:24:34.970Z,12.32
2023-01-21T20:26:38.231Z,14.48
2023-01-21T20:28:44.354Z,13.60
2023-01-21T20:30:46.841Z,11.85
2023-01-21T20:32:49.065Z,11.38
2023-01-21T20:34:50.491Z,11.30
2023-01-21T20:36:52.312Z,13.38
2023-01-21T20:38:54.836Z,11.70
2023-01-21T20:40:57.835Z,11.98
2023-01-21T20:42:59.322Z,12.82
2023-01-21T20:45:00.766Z,11.85
2023-01-21T20:47:02.380Z,11.60
2023-01-21T20:49:03.857Z,9.95
2023-01-21T20:51:05.939Z,9.55
2023-01-21T20:53:10.055Z,9.25
2023-01-21T20:55:12.986Z,11.18
2023-01-21T20:57:14.476Z,11.00
2023-01-21T20:59:16.046Z,12.07
2023-01-21T21:01:19.833Z,14.40
2023-01-21T21:03:21.381Z,13.50
2023-01-21T21:05:23.953Z,8.30
2023-01-21T21:07:26.728Z,8.50
2023-01-21T21:09:28.759Z,10.45
2023-01-21T21:11:30.245Z,11.77
2023-01-21T21:13:31.689Z,8.43
2023-01-21T21:15:35.464Z,10.70
2023-01-21T21:17:37.015Z,9.60
2023-01-21T21:19:38.465Z,12.32
2023-01-21T21:21:39.931Z,8.35
2023-01-21T21:23:41.591Z,10.15
2023-01-21T21:25:45.134Z,8.40
2023-01-21T21:27:47.137Z,8.23
2023-01-21T21:29:48.581Z,12.07
2023-01-21T21:31:50.184Z,8.70
2023-01-21T21:33:52.088Z,9.73
2023-01-21T21:35:53.533Z,9.38
2023-01-21T21:37:57.251Z,10.57
2023-01-21T21:39:58.829Z,9.38
2023-01-21T21:42:18.580Z,11.43
2023-01-21T21:44:20.052Z,9.93
2023-01-21T21:46:39.870Z,10.73
2023-01-21T21:48:42.530Z,9.32
2023-01-21T21:50:44.070Z,10.25
2023-01-21T21:52:45.624Z,10.63
2023-01-21T21:54:47.125Z,10.35
2023-01-21T21:56:48.651Z,11.07
2023-01-21T21:58:51.101Z,11.95
2023-01-21T22:00:54.106Z,10.80
2023-01-21T22:03:02.491Z,10.15
2023-01-21T22:05:04.192Z,14.23
2023-01-21T22:07:05.713Z,12.93
2023-01-21T22:09:07.312Z,9.35
2023-01-21T22:11:12.733Z,8.57
2023-01-21T22:13:14.191Z,9.80
2023-01-21T22:15:16.017Z,11.13
2023-01-21T22:17:17.569Z,13.63
2023-01-21T22:19:19.132Z,9.40
2023-01-21T22:21:23.280Z,8.73
2023-01-21T22:23:24.955Z,15.07
2023-01-21T22:25:26.445Z,9.50
2023-01-21T22:27:27.923Z,9.85
2023-01-21T22:29:29.670Z,9.45
2023-01-21T22:31:32.624Z,9.80
2023-01-21T22:33:35.129Z,8.45
2023-01-21T22:35:39.579Z,9.35
2023-01-21T22:37:41.038Z,11.15
2023-01-21T22:39:42.499Z,6.15
2023-01-21T22:41:44.149Z,9.15
2023-01-21T22:43:48.385Z,11.35
2023-01-21T22:45:51.820Z,8.98
2023-01-21T22:47:53.321Z,7.75
2023-01-21T22:49:54.762Z,10.52
2023-01-21T22:51:56.292Z,7.65
2023-01-21T22:54:00.086Z,12.48
2023-01-21T22:56:04.545Z,10.68
2023-01-21T22:58:06.278Z,9.98
2023-01-21T23:00:11.338Z,9.40
2023-01-21T23:02:12.793Z,10.20
2023-01-21T23:04:15.735Z,7.32
2023-01-21T23:06:17.887Z,8.52
2023-01-21T23:08:19.856Z,9.07
2023-01-21T23:10:21.540Z,7.55
2023-01-21T23:12:23.049Z,10.40
2023-01-21T23:14:24.595Z,13.98
2023-01-21T23:16:26.129Z,10.32
2023-01-21T23:18:28.700Z,10.13
2023-01-21T23:20:30.162Z,8.25
2023-01-21T23:22:31.606Z,9.38
2023-01-21T23:24:34.087Z,13.73
2023-01-21T23:26:36.264Z,7.65
2023-01-21T23:28:37.909Z,8.93
2023-01-21T23:30:39.374Z,8.68
2023-01-21T23:32:41.107Z,9.23
2023-01-21T23:34:42.582Z,10.10
2023-01-21T23:36:44.101Z,10.30
2023-01-21T23:38:46.166Z,8.43
2023-01-21T23:40:47.638Z,8.63
2023-01-21T23:42:49.780Z,10.95
2023-01-21T23:44:51.401Z,10.93
2023-01-21T23:46:53.071Z,7.55
2023-01-21T23:48:54.695Z,10.27
2023-01-21T23:51:05.104Z,9.93
2023-01-21T23:53:06.598Z,7.88
2023-01-21T23:55:09.871Z,7.72
2023-01-21T23:57:12.251Z,7.68
2023-01-21T23:59:13.770Z,12.73
